createdAt,value
2019-05-17T00:00:08.397Z,87.42
2019-05-17T00:02:37.386Z,87.24
2019-05-17T00:05:08.317Z,87.02
2019-05-17T00:07:37.140Z,87.18
2019-05-17T00:10:06.868Z,87.19
2019-05-17T00:12:36.748Z,86.83
2019-05-17T00:15:07.183Z,86.83
2019-05-17T00:17:37.715Z,87.08
2019-05-17T00:20:08.107Z,87.29
2019-05-17T00:22:36.828Z,87.08
2019-05-17T00:25:08.737Z,86.83
2019-05-17T00:27:37.786Z,86.92
2019-05-17T00:30:08.831Z,87.00
2019-05-17T00:32:37.247Z,87.08
2019-05-17T00:35:07.424Z,86.92
2019-05-17T00:37:37.362Z,87.03
2019-05-17T00:40:07.613Z,87.17
2019-05-17T00:42:37.236Z,87.29
2019-05-17T00:45:09.434Z,87.64
2019-05-17T00:47:37.815Z,87.83
2019-05-17T00:50:08.128Z,87.55
2019-05-17T00:52:36.984Z,87.26
2019-05-17T00:55:09.351Z,87.32
2019-05-17T00:57:37.745Z,87.52
2019-05-17T01:00:08.662Z,87.59
2019-05-17T01:02:37.138Z,87.57
2019-05-17T01:05:07.306Z,87.78
2019-05-17T01:07:37.632Z,87.77
2019-05-17T01:10:08.189Z,87.90
2019-05-17T01:12:36.797Z,87.92
2019-05-17T01:15:09.161Z,87.95
2019-05-17T01:17:37.555Z,88.01
2019-05-17T01:20:08.492Z,88.06
2019-05-17T01:22:36.963Z,88.13
2019-05-17T01:25:07.557Z,88.06
2019-05-17T01:27:38.216Z,87.77
2019-05-17T01:30:08.155Z,87.78
2019-05-17T01:32:37.461Z,88.08
2019-05-17T01:35:07.423Z,88.01
2019-05-17T01:37:36.983Z,88.06
2019-05-17T01:40:07.010Z,88.19
2019-05-17T01:42:37.412Z,88.19
2019-05-17T01:45:07.521Z,88.01
2019-05-17T01:47:36.856Z,87.98
2019-05-17T01:50:08.896Z,88.07
2019-05-17T01:52:37.290Z,87.99
2019-05-17T01:55:07.513Z,88.10
2019-05-17T01:57:36.983Z,87.95
2019-05-17T02:00:11.027Z,87.81
2019-05-17T02:02:41.061Z,87.73
2019-05-17T02:05:09.724Z,87.18
2019-05-17T02:07:38.086Z,87.09
2019-05-17T02:10:10.540Z,87.68
2019-05-17T02:12:38.999Z,87.77
2019-05-17T02:15:08.529Z,87.68
2019-05-17T02:17:37.432Z,87.88
2019-05-17T02:20:08.879Z,87.90
2019-05-17T02:22:37.262Z,87.94
2019-05-17T02:25:11.920Z,88.02
2019-05-17T02:27:44.635Z,88.17
2019-05-17T02:30:13.991Z,88.27
2019-05-17T02:32:43.762Z,88.34
2019-05-17T02:35:14.434Z,87.99
2019-05-17T02:37:43.546Z,87.97
2019-05-17T02:40:14.685Z,87.84
2019-05-17T02:42:44.129Z,88.09
2019-05-17T02:45:14.160Z,88.28
2019-05-17T02:47:43.644Z,88.39
2019-05-17T02:50:13.339Z,88.47
2019-05-17T02:52:43.814Z,88.11
2019-05-17T02:55:12.949Z,88.02
2019-05-17T02:57:43.363Z,87.95
2019-05-17T03:00:13.751Z,87.99
2019-05-17T03:02:43.821Z,88.12
2019-05-17T03:05:13.944Z,87.77
2019-05-17T03:07:43.939Z,87.56
2019-05-17T03:10:22.905Z,88.07
2019-05-17T03:12:44.752Z,88.07
2019-05-17T03:15:13.911Z,88.12
2019-05-17T03:17:43.519Z,88.43
2019-05-17T03:20:13.313Z,88.36
2019-05-17T03:22:44.045Z,88.62
2019-05-17T03:25:13.706Z,88.69
2019-05-17T03:27:42.992Z,88.73
2019-05-17T03:30:17.022Z,88.22
2019-05-17T03:32:47.744Z,88.10
2019-05-17T03:35:17.414Z,88.17
2019-05-17T03:37:44.811Z,88.06
2019-05-17T03:40:30.681Z,88.13
2019-05-17T03:42:44.249Z,88.29
2019-05-17T03:45:13.941Z,88.29
2019-05-17T03:47:44.316Z,88.39
2019-05-17T03:50:13.720Z,88.68
2019-05-17T03:52:44.660Z,88.66
2019-05-17T03:55:13.736Z,88.43
2019-05-17T03:57:44.132Z,88.39
2019-05-17T04:00:14.216Z,88.44
2019-05-17T04:02:44.654Z,88.09
2019-05-17T04:05:13.343Z,88.25
2019-05-17T04:07:43.380Z,88.24
2019-05-17T04:10:15.045Z,88.20
2019-05-17T04:12:44.481Z,88.30
2019-05-17T04:15:15.270Z,88.49
2019-05-17T04:17:44.325Z,88.65
2019-05-17T04:20:14.005Z,88.51
2019-05-17T04:22:44.059Z,88.21
2019-05-17T04:25:13.998Z,88.14
2019-05-17T04:27:43.889Z,88.08
2019-05-17T04:30:12.895Z,87.93
2019-05-17T04:32:44.129Z,88.17
2019-05-17T04:35:12.915Z,88.22
2019-05-17T04:37:44.628Z,88.20
2019-05-17T04:40:14.070Z,87.85
2019-05-17T04:42:43.850Z,88.00
2019-05-17T04:45:13.130Z,87.71
2019-05-17T04:47:44.241Z,87.41
2019-05-17T04:50:13.740Z,87.61
2019-05-17T04:52:43.110Z,87.81
2019-05-17T04:55:13.769Z,88.08
2019-05-17T04:57:43.778Z,87.77
2019-05-17T05:00:14.469Z,87.83
2019-05-17T05:02:44.064Z,88.15
2019-05-17T05:05:14.590Z,87.98
2019-05-17T05:07:43.806Z,87.82
2019-05-17T05:10:13.650Z,87.65
2019-05-17T05:12:43.402Z,87.67
2019-05-17T05:15:13.874Z,87.47
2019-05-17T05:17:42.948Z,87.72
2019-05-17T05:20:13.435Z,87.67
2019-05-17T05:22:42.827Z,87.83
2019-05-17T05:25:12.908Z,87.92
2019-05-17T05:27:42.745Z,87.95
2019-05-17T05:30:12.052Z,87.82
2019-05-17T05:32:42.701Z,87.67
2019-05-17T05:35:12.360Z,86.79
2019-05-17T05:37:42.354Z,87.31
2019-05-17T05:40:12.697Z,87.53
2019-05-17T05:42:42.534Z,87.79
2019-05-17T05:45:12.542Z,87.93
2019-05-17T05:47:44.223Z,87.99
2019-05-17T05:50:13.067Z,88.12
2019-05-17T05:52:42.554Z,87.52
2019-05-17T05:55:12.392Z,86.80
2019-05-17T05:57:42.067Z,86.41
2019-05-17T06:00:13.026Z,85.88
2019-05-17T06:02:42.010Z,85.77
2019-05-17T06:05:15.011Z,84.17
2019-05-17T06:07:41.780Z,83.55
2019-05-17T06:10:12.980Z,82.50
2019-05-17T06:12:43.284Z,82.64
2019-05-17T06:15:12.707Z,83.97
2019-05-17T06:17:42.769Z,83.77
2019-05-17T06:20:12.092Z,82.47
2019-05-17T06:22:42.915Z,83.74
2019-05-17T06:25:14.822Z,83.55
2019-05-17T06:27:41.605Z,81.12
2019-05-17T06:30:12.574Z,80.17
2019-05-17T06:32:43.356Z,80.59
2019-05-17T06:35:12.597Z,81.16
2019-05-17T06:37:42.209Z,80.67
2019-05-17T06:40:13.052Z,80.65
2019-05-17T06:42:45.178Z,79.23
2019-05-17T06:45:12.697Z,79.05
2019-05-17T06:47:42.575Z,79.47
2019-05-17T06:50:14.262Z,76.62
2019-05-17T06:52:43.409Z,77.97
2019-05-17T06:55:12.964Z,77.29
2019-05-17T06:57:43.247Z,72.78
2019-05-17T07:00:19.725Z,73.71
2019-05-17T07:02:42.690Z,74.90
2019-05-17T07:05:13.069Z,74.19
2019-05-17T07:07:41.461Z,71.14
2019-05-17T07:10:11.107Z,73.20
2019-05-17T07:12:54.390Z,74.07
2019-05-17T07:15:10.855Z,72.87
2019-05-17T07:17:40.040Z,74.55
2019-05-17T07:20:10.356Z,74.38
2019-05-17T07:22:40.739Z,75.81
2019-05-17T07:25:10.964Z,75.39
2019-05-17T07:27:44.813Z,75.11
2019-05-17T07:30:10.781Z,71.46
2019-05-17T07:32:40.577Z,71.07
2019-05-17T07:35:11.022Z,68.47
2019-05-17T07:37:40.020Z,69.61
2019-05-17T07:40:10.971Z,69.48
2019-05-17T07:42:39.670Z,68.83
2019-05-17T07:45:10.109Z,68.00
2019-05-17T07:47:40.368Z,65.10
2019-05-17T07:50:11.479Z,64.12
2019-05-17T07:52:40.111Z,64.77
2019-05-17T07:55:10.862Z,65.28
2019-05-17T07:57:40.862Z,65.66
2019-05-17T08:00:10.913Z,65.38
2019-05-17T08:02:40.083Z,63.17
2019-05-17T08:05:10.022Z,61.74
2019-05-17T08:07:40.121Z,62.13
2019-05-17T08:10:11.086Z,60.34
2019-05-17T08:12:40.521Z,62.14
2019-05-17T08:15:10.745Z,62.78
2019-05-17T08:17:39.739Z,63.76
2019-05-17T08:20:10.288Z,63.11
2019-05-17T08:22:39.929Z,63.68
2019-05-17T08:25:10.172Z,61.81
2019-05-17T08:27:40.665Z,61.95
2019-05-17T08:30:10.622Z,61.23
2019-05-17T08:32:40.056Z,60.41
2019-05-17T08:35:11.398Z,59.89
2019-05-17T08:37:42.495Z,59.67
2019-05-17T08:40:11.487Z,59.35
2019-05-17T08:42:41.232Z,60.08
2019-05-17T08:45:10.551Z,59.95
2019-05-17T08:47:39.735Z,58.65
2019-05-17T08:50:11.485Z,57.81
2019-05-17T08:52:40.219Z,58.35
2019-05-17T08:55:09.737Z,57.28
2019-05-17T08:57:39.937Z,56.89
2019-05-17T09:00:10.729Z,58.95
2019-05-17T09:02:40.977Z,59.05
2019-05-17T09:05:10.224Z,58.11
2019-05-17T09:07:40.185Z,57.47
2019-05-17T09:10:10.013Z,56.72
2019-05-17T09:12:40.863Z,56.93
2019-05-17T09:15:10.681Z,56.48
2019-05-17T09:17:39.887Z,56.04
2019-05-17T09:20:10.662Z,56.72
2019-05-17T09:22:39.574Z,57.69
2019-05-17T09:25:12.292Z,56.60
2019-05-17T09:27:39.645Z,56.23
2019-05-17T09:30:09.474Z,55.96
2019-05-17T09:32:40.296Z,55.27
2019-05-17T09:35:10.000Z,55.24
2019-05-17T09:37:41.373Z,56.08
2019-05-17T09:40:09.448Z,56.65
2019-05-17T09:42:40.747Z,55.60
2019-05-17T09:45:09.720Z,55.63
2019-05-17T09:47:39.690Z,56.32
2019-05-17T09:50:09.961Z,56.79
2019-05-17T09:52:40.611Z,56.83
2019-05-17T09:55:09.874Z,54.37
2019-05-17T09:57:40.919Z,54.91
2019-05-17T10:00:10.273Z,55.00
2019-05-17T10:02:40.202Z,54.92
2019-05-17T10:05:10.747Z,54.85
2019-05-17T10:07:40.241Z,55.05
2019-05-17T10:10:10.506Z,54.82
2019-05-17T10:12:40.317Z,54.47
2019-05-17T10:15:10.326Z,53.73
2019-05-17T10:17:38.842Z,54.85
2019-05-17T10:20:10.522Z,54.83
2019-05-17T10:22:40.187Z,55.42
2019-05-17T10:25:09.627Z,54.31
2019-05-17T10:27:40.560Z,53.65
2019-05-17T10:30:10.243Z,53.72
2019-05-17T10:32:40.887Z,54.63
2019-05-17T10:35:10.181Z,54.57
2019-05-17T10:37:40.636Z,54.16
2019-05-17T10:40:10.768Z,53.91
2019-05-17T10:42:39.761Z,54.49
2019-05-17T10:45:10.971Z,53.91
2019-05-17T10:47:40.037Z,54.17
2019-05-17T10:50:10.830Z,53.23
2019-05-17T10:52:40.935Z,52.39
2019-05-17T10:55:10.784Z,52.75
2019-05-17T10:57:39.384Z,53.89
2019-05-17T11:00:10.056Z,53.62
2019-05-17T11:02:38.815Z,51.55
2019-05-17T11:05:10.479Z,53.20
2019-05-17T11:07:38.720Z,52.75
2019-05-17T11:10:11.144Z,52.31
2019-05-17T11:12:38.148Z,51.91
2019-05-17T11:15:11.493Z,51.96
2019-05-17T11:17:37.353Z,51.14
2019-05-17T11:20:29.551Z,51.34
2019-05-17T11:22:57.938Z,52.27
2019-05-17T11:25:26.326Z,52.78
2019-05-17T11:27:54.709Z,51.74
2019-05-17T11:30:23.170Z,51.65
2019-05-17T11:32:51.601Z,52.61
2019-05-17T11:35:19.968Z,54.11
2019-05-17T11:37:48.456Z,52.99
2019-05-17T11:40:17.573Z,52.85
2019-05-17T11:42:45.994Z,53.58
2019-05-17T11:45:26.641Z,53.12
2019-05-17T11:47:44.855Z,52.05
2019-05-17T11:50:13.575Z,51.47
2019-05-17T11:52:41.975Z,52.46
2019-05-17T11:55:10.893Z,53.25
2019-05-17T11:57:39.275Z,52.50
2019-05-17T12:00:09.610Z,49.35
2019-05-17T12:02:38.036Z,50.23
2019-05-17T12:05:06.769Z,50.65
2019-05-17T12:07:35.149Z,51.53
2019-05-17T12:10:05.267Z,49.64
2019-05-17T12:12:33.661Z,50.58
2019-05-17T12:15:02.103Z,51.68
2019-05-17T12:17:30.439Z,50.98
2019-05-17T12:19:58.851Z,49.84
2019-05-17T12:22:27.238Z,50.59
2019-05-17T12:24:55.658Z,51.13
2019-05-17T12:27:24.039Z,50.21
2019-05-17T12:29:52.427Z,51.44
2019-05-17T12:32:20.817Z,50.46
2019-05-17T12:34:49.211Z,49.75
2019-05-17T12:37:17.622Z,50.49
2019-05-17T12:39:46.033Z,49.98
2019-05-17T12:42:14.433Z,49.81
2019-05-17T12:44:42.787Z,49.84
2019-05-17T12:47:11.187Z,49.48
2019-05-17T12:49:39.567Z,50.01
2019-05-17T12:52:07.954Z,49.51
2019-05-17T12:54:36.348Z,49.98
2019-05-17T12:57:05.146Z,48.52
2019-05-17T12:59:33.599Z,48.95
2019-05-17T13:02:02.095Z,48.48
2019-05-17T13:04:30.480Z,49.52
2019-05-17T13:06:58.868Z,49.19
2019-05-17T13:09:27.262Z,48.43
2019-05-17T13:11:55.647Z,49.04
2019-05-17T13:14:24.040Z,48.12
2019-05-17T13:16:52.423Z,48.31
2019-05-17T13:19:20.896Z,48.37
2019-05-17T13:21:49.342Z,48.23
2019-05-17T13:24:17.693Z,48.17
2019-05-17T13:26:46.085Z,48.50
2019-05-17T13:29:14.466Z,48.62
2019-05-17T13:31:42.852Z,47.70
2019-05-17T13:34:11.235Z,47.79
2019-05-17T13:36:39.627Z,47.36
2019-05-17T13:39:08.014Z,47.26
2019-05-17T13:41:36.405Z,46.36
2019-05-17T13:44:05.056Z,47.25
2019-05-17T13:46:33.778Z,47.38
2019-05-17T13:49:02.190Z,46.64
2019-05-17T13:51:30.847Z,45.74
2019-05-17T13:53:59.230Z,46.46
2019-05-17T13:56:27.688Z,46.82
2019-05-17T13:58:56.238Z,47.09
2019-05-17T14:01:24.618Z,46.73
2019-05-17T14:03:53.007Z,46.45
2019-05-17T14:06:21.394Z,45.66
2019-05-17T14:08:49.782Z,45.66
2019-05-17T14:11:18.171Z,45.13
2019-05-17T14:13:46.554Z,45.13
2019-05-17T14:16:15.019Z,45.31
2019-05-17T14:18:43.391Z,45.75
2019-05-17T14:21:11.847Z,45.75
2019-05-17T14:23:40.296Z,45.92
2019-05-17T14:26:08.696Z,46.38
2019-05-17T14:28:37.080Z,46.30
2019-05-17T14:31:05.459Z,44.85
2019-05-17T14:33:33.862Z,43.66
2019-05-17T14:36:02.419Z,44.51
2019-05-17T14:38:30.807Z,45.05
2019-05-17T14:41:08.445Z,45.05
2019-05-17T14:43:31.586Z,44.80
2019-05-17T14:45:59.437Z,44.25
2019-05-17T14:48:27.830Z,44.52
2019-05-17T14:50:56.222Z,43.91
2019-05-17T14:53:24.638Z,45.37
2019-05-17T14:55:53.008Z,45.37
2019-05-17T14:58:21.416Z,44.89
2019-05-17T15:00:49.868Z,44.89
2019-05-17T15:03:18.251Z,45.24
2019-05-17T15:05:46.631Z,45.37
2019-05-17T15:08:15.088Z,44.94
2019-05-17T15:10:43.736Z,44.90
2019-05-17T15:13:12.127Z,44.82
2019-05-17T15:15:40.532Z,44.93
2019-05-17T15:18:09.957Z,44.93
2019-05-17T15:20:38.596Z,44.93
2019-05-17T15:23:06.994Z,43.41
2019-05-17T15:25:35.368Z,43.41
2019-05-17T15:28:03.884Z,43.65
2019-05-17T15:30:32.433Z,43.14
2019-05-17T15:33:00.835Z,43.14
2019-05-17T15:35:29.221Z,43.50
2019-05-17T15:37:57.621Z,43.57
2019-05-17T15:40:26.022Z,44.06
2019-05-17T15:42:54.481Z,45.09
2019-05-17T15:45:22.875Z,45.62
2019-05-17T15:47:51.289Z,45.12
2019-05-17T15:50:19.904Z,45.99
2019-05-17T15:52:48.287Z,45.99
2019-05-17T15:55:16.816Z,45.80
2019-05-17T15:57:45.275Z,44.23
2019-05-17T16:00:14.389Z,44.23
2019-05-17T16:02:42.767Z,44.78
2019-05-17T16:05:11.318Z,44.96
2019-05-17T16:07:39.802Z,44.89
2019-05-17T16:10:08.918Z,44.98
2019-05-17T16:12:37.390Z,45.64
2019-05-17T16:15:07.878Z,44.99
2019-05-17T16:17:36.274Z,45.24
2019-05-17T16:20:06.130Z,44.64
2019-05-17T16:22:34.574Z,44.64
2019-05-17T16:25:03.331Z,44.16
2019-05-17T16:27:31.720Z,44.74
2019-05-17T16:30:00.143Z,45.06
2019-05-17T16:32:28.578Z,45.90
2019-05-17T16:34:56.955Z,46.54
2019-05-17T16:37:25.394Z,46.74
2019-05-17T16:39:53.906Z,46.78
2019-05-17T16:42:22.253Z,46.44
2019-05-17T16:44:51.541Z,46.63
2019-05-17T16:47:19.960Z,46.07
2019-05-17T16:49:48.403Z,45.17
2019-05-17T16:52:16.791Z,45.07
2019-05-17T16:54:45.256Z,44.81
2019-05-17T16:57:13.635Z,44.93
2019-05-17T16:59:42.052Z,45.12
2019-05-17T17:02:10.482Z,45.32
2019-05-17T17:04:38.818Z,45.24
2019-05-17T17:07:07.196Z,45.76
2019-05-17T17:09:35.715Z,46.37
2019-05-17T17:12:04.341Z,46.84
2019-05-17T17:14:32.793Z,46.94
2019-05-17T17:17:01.181Z,46.74
2019-05-17T17:19:29.637Z,46.74
2019-05-17T17:21:58.055Z,47.66
2019-05-17T17:24:26.466Z,47.66
2019-05-17T17:26:54.859Z,48.36
2019-05-17T17:29:23.246Z,47.71
2019-05-17T17:31:51.688Z,48.25
2019-05-17T17:34:20.071Z,48.46
2019-05-17T17:36:48.459Z,48.71
2019-05-17T17:39:16.929Z,49.00
2019-05-17T17:41:45.422Z,49.13
2019-05-17T17:44:13.789Z,49.13
2019-05-17T17:46:42.186Z,49.31
2019-05-17T17:49:10.580Z,49.24
2019-05-17T17:51:38.965Z,49.33
2019-05-17T17:54:07.351Z,49.56
2019-05-17T17:56:35.734Z,49.82
2019-05-17T17:59:04.219Z,49.94
2019-05-17T18:01:32.602Z,50.20
2019-05-17T18:04:00.988Z,50.32
2019-05-17T18:06:29.441Z,50.63
2019-05-17T18:08:57.833Z,50.79
2019-05-17T18:11:26.210Z,50.86
2019-05-17T18:13:54.597Z,50.96
2019-05-17T18:16:22.978Z,51.25
2019-05-17T18:18:51.383Z,51.33
2019-05-17T18:21:19.771Z,51.35
2019-05-17T18:23:48.160Z,51.40
2019-05-17T18:26:16.620Z,51.41
2019-05-17T18:28:45.004Z,51.82
2019-05-17T18:31:13.467Z,51.58
2019-05-17T18:33:42.002Z,51.61
2019-05-17T18:36:10.439Z,51.80
2019-05-17T18:38:38.909Z,52.02
2019-05-17T18:41:08.148Z,52.21
2019-05-17T18:43:36.542Z,52.39
2019-05-17T18:46:04.998Z,52.42
2019-05-17T18:48:33.447Z,52.63
2019-05-17T18:51:01.834Z,52.85
2019-05-17T18:53:30.220Z,53.03
2019-05-17T18:55:58.630Z,53.18
2019-05-17T18:58:27.016Z,53.27
2019-05-17T19:00:55.474Z,53.50
2019-05-17T19:03:23.909Z,53.61
2019-05-17T19:05:52.356Z,53.76
2019-05-17T19:08:20.753Z,54.03
2019-05-17T19:10:49.495Z,54.21
2019-05-17T19:13:17.870Z,54.49
2019-05-17T19:15:46.258Z,54.48
2019-05-17T19:18:14.799Z,54.59
2019-05-17T19:20:43.170Z,54.70
2019-05-17T19:23:11.551Z,54.69
2019-05-17T19:25:39.973Z,54.74
2019-05-17T19:28:08.421Z,54.60
2019-05-17T19:30:36.818Z,54.67
2019-05-17T19:33:05.198Z,54.85
2019-05-17T19:35:33.614Z,54.94
2019-05-17T19:38:01.999Z,55.12
2019-05-17T19:40:30.449Z,55.16
2019-05-17T19:42:58.835Z,55.23
2019-05-17T19:45:27.222Z,55.32
2019-05-17T19:47:58.589Z,55.40
2019-05-17T19:50:27.002Z,55.39
2019-05-17T19:52:55.369Z,55.54
2019-05-17T19:55:23.835Z,55.66
2019-05-17T19:57:52.296Z,55.78
2019-05-17T20:00:21.166Z,56.06
2019-05-17T20:02:49.544Z,56.05
2019-05-17T20:05:18.000Z,56.12
2019-05-17T20:07:46.435Z,56.22
2019-05-17T20:10:16.715Z,56.59
2019-05-17T20:12:45.184Z,56.62
2019-05-17T20:15:17.613Z,56.76
2019-05-17T20:17:44.118Z,56.87
2019-05-17T20:20:15.611Z,57.04
2019-05-17T20:22:44.041Z,57.24
2019-05-17T20:25:13.137Z,57.31
2019-05-17T20:27:41.526Z,57.48
2019-05-17T20:30:10.844Z,57.59
2019-05-17T20:32:39.349Z,57.71
2019-05-17T20:35:08.589Z,57.90
2019-05-17T20:37:36.986Z,58.14
2019-05-17T20:40:10.266Z,58.13
2019-05-17T20:42:38.656Z,58.16
2019-05-17T20:45:09.684Z,58.28
2019-05-17T20:47:38.072Z,58.57
2019-05-17T20:50:09.515Z,58.54
2019-05-17T20:52:37.907Z,58.75
2019-05-17T20:55:07.028Z,58.86
2019-05-17T20:57:35.409Z,58.87
2019-05-17T21:00:07.010Z,58.97
2019-05-17T21:02:35.403Z,59.30
2019-05-17T21:05:05.877Z,59.27
2019-05-17T21:07:34.267Z,59.42
2019-05-17T21:10:02.819Z,59.49
2019-05-17T21:12:31.227Z,59.52
2019-05-17T21:14:59.614Z,59.73
2019-05-17T21:17:28.006Z,59.96
2019-05-17T21:19:56.381Z,60.23
2019-05-17T21:22:24.854Z,60.33
2019-05-17T21:24:53.290Z,60.38
2019-05-17T21:27:21.712Z,60.42
2019-05-17T21:29:50.093Z,60.66
2019-05-17T21:32:18.476Z,60.65
2019-05-17T21:34:46.855Z,60.91
2019-05-17T21:37:15.512Z,60.96
2019-05-17T21:39:43.896Z,61.02
2019-05-17T21:42:12.346Z,61.09
2019-05-17T21:44:40.782Z,61.20
2019-05-17T21:47:09.143Z,61.48
2019-05-17T21:49:37.585Z,61.48
2019-05-17T21:52:06.744Z,61.56
2019-05-17T21:54:35.133Z,61.69
2019-05-17T21:57:03.522Z,61.89
2019-05-17T21:59:31.902Z,62.25
2019-05-17T22:02:01.170Z,62.39
2019-05-17T22:04:29.545Z,62.36
2019-05-17T22:06:57.939Z,62.63
2019-05-17T22:09:26.400Z,62.71
2019-05-17T22:11:56.428Z,62.44
2019-05-17T22:14:24.813Z,62.67
2019-05-17T22:16:53.200Z,62.73
2019-05-17T22:19:21.595Z,62.71
2019-05-17T22:21:49.978Z,63.07
2019-05-17T22:24:18.373Z,63.35
2019-05-17T22:26:46.836Z,63.62
2019-05-17T22:29:15.228Z,63.80
2019-05-17T22:31:43.622Z,64.41
2019-05-17T22:34:12.016Z,64.38
2019-05-17T22:36:40.408Z,64.86
2019-05-17T22:39:08.907Z,64.97
2019-05-17T22:41:37.369Z,65.17
2019-05-17T22:44:05.801Z,65.25
2019-05-17T22:46:36.420Z,65.37
2019-05-17T22:49:04.347Z,65.34
2019-05-17T22:51:32.787Z,65.95
2019-05-17T22:54:01.245Z,66.33
2019-05-17T22:56:29.653Z,66.35
2019-05-17T22:58:58.130Z,66.38
2019-05-17T23:01:26.612Z,66.55
2019-05-17T23:03:55.075Z,66.60
2019-05-17T23:06:23.437Z,66.92
2019-05-17T23:08:51.894Z,66.84
2019-05-17T23:11:20.335Z,66.50
2019-05-17T23:13:48.717Z,66.57
2019-05-17T23:16:17.213Z,66.48
2019-05-17T23:19:03.787Z,66.66
2019-05-17T23:21:32.173Z,66.94
2019-05-17T23:24:00.605Z,67.06
2019-05-17T23:26:29.034Z,67.16
2019-05-17T23:28:57.431Z,67.21
2019-05-17T23:31:25.820Z,67.36
2019-05-17T23:33:54.290Z,67.50
2019-05-17T23:36:22.860Z,67.66
2019-05-17T23:38:51.255Z,67.60
2019-05-17T23:41:19.673Z,67.80
2019-05-17T23:43:48.161Z,67.84
2019-05-17T23:46:16.582Z,68.03
2019-05-17T23:48:45.059Z,68.14
2019-05-17T23:51:13.469Z,68.39
2019-05-17T23:53:41.997Z,68.41
2019-05-17T23:56:10.384Z,68.38
2019-05-17T23:58:38.789Z,68.81
